sensor_id;sensor_type;location;lat;lon;timestamp;pressure;altitude;pressure_sealevel;temperature;humidity
64402;BME280;50724;42.376;23.768;2024-01-25T00:04:42;93470.69;;;7.44;68.42
64402;BME280;50724;42.376;23.768;2024-01-25T00:07:54;93469.44;;;7.48;68.81
64402;BME280;50724;42.376;23.768;2024-01-25T00:10:55;93474.09;;;7.63;66.78
64402;BME280;50724;42.376;23.768;2024-01-25T00:14:14;93486.41;;;7.71;65.98
64402;BME280;50724;42.376;23.768;2024-01-25T00:17:36;93485.75;;;7.59;64.97
64402;BME280;50724;42.376;23.768;2024-01-25T00:20:54;93514.38;;;7.59;63.26
64402;BME280;50724;42.376;23.768;2024-01-25T00:24:18;93519.44;;;7.61;62.86
64402;BME280;50724;42.376;23.768;2024-01-25T00:27:34;93526.56;;;7.40;63.92
64402;BME280;50724;42.376;23.768;2024-01-25T00:30:34;93523.28;;;7.28;63.82
64402;BME280;50724;42.376;23.768;2024-01-25T00:34:12;93522.19;;;7.21;63.21
64402;BME280;50724;42.376;23.768;2024-01-25T00:37:34;93512.28;;;7.15;65.14
64402;BME280;50724;42.376;23.768;2024-01-25T00:40:35;93491.16;;;6.61;66.29
64402;BME280;50724;42.376;23.768;2024-01-25T00:44:09;93495.63;;;5.47;64.37
64402;BME280;50724;42.376;23.768;2024-01-25T00:47:31;93494.53;;;4.77;67.19
64402;BME280;50724;42.376;23.768;2024-01-25T00:50:53;93497.53;;;4.39;69.17
64402;BME280;50724;42.376;23.768;2024-01-25T00:54:20;93493.69;;;4.34;73.22
64402;BME280;50724;42.376;23.768;2024-01-25T00:58:21;93486.19;;;4.62;78.22
64402;BME280;50724;42.376;23.768;2024-01-25T01:01:39;93472.94;;;4.88;82.08
64402;BME280;50724;42.376;23.768;2024-01-25T01:05:52;93475.72;;;4.96;84.93
64402;BME280;50724;42.376;23.768;2024-01-25T01:09:21;93464.72;;;4.40;85.62
64402;BME280;50724;42.376;23.768;2024-01-25T01:12:41;93470.38;;;4.23;85.42
64402;BME280;50724;42.376;23.768;2024-01-25T01:16:28;93457.69;;;4.08;85.35
64402;BME280;50724;42.376;23.768;2024-01-25T01:19:56;93459.34;;;4.09;85.36
64402;BME280;50724;42.376;23.768;2024-01-25T01:23:16;93450.88;;;4.07;87.23
64402;BME280;50724;42.376;23.768;2024-01-25T01:26:51;93442.66;;;4.02;89.12
64402;BME280;50724;42.376;23.768;2024-01-25T01:30:13;93432.16;;;4.04;91.30
64402;BME280;50724;42.376;23.768;2024-01-25T01:33:36;93434.84;;;4.36;93.25
64402;BME280;50724;42.376;23.768;2024-01-25T01:37:00;93426.38;;;4.65;92.61
64402;BME280;50724;42.376;23.768;2024-01-25T01:40:26;93423.34;;;4.92;92.60
64402;BME280;50724;42.376;23.768;2024-01-25T01:43:35;93405.66;;;5.18;88.80
64402;BME280;50724;42.376;23.768;2024-01-25T01:46:56;93415.34;;;5.25;86.72
64402;BME280;50724;42.376;23.768;2024-01-25T01:49:59;93419.09;;;5.32;85.17
64402;BME280;50724;42.376;23.768;2024-01-25T01:53:26;93407.97;;;5.41;84.72
64402;BME280;50724;42.376;23.768;2024-01-25T01:56:36;93398.53;;;5.40;84.28
64402;BME280;50724;42.376;23.768;2024-01-25T02:00:15;93382.84;;;5.42;83.19
64402;BME280;50724;42.376;23.768;2024-01-25T02:03:56;93379.13;;;5.35;83.73
64402;BME280;50724;42.376;23.768;2024-01-25T02:07:07;93379.16;;;5.44;83.87
64402;BME280;50724;42.376;23.768;2024-01-25T02:13:53;93356.56;;;5.86;83.27
64402;BME280;50724;42.376;23.768;2024-01-25T02:17:15;93357.69;;;6.03;82.60
64402;BME280;50724;42.376;23.768;2024-01-25T02:28:00;93342.31;;;6.20;81.46
64402;BME280;50724;42.376;23.768;2024-01-25T02:31:11;93340.53;;;6.21;81.83
64402;BME280;50724;42.376;23.768;2024-01-25T02:44:47;93342.59;;;6.27;83.17
64402;BME280;50724;42.376;23.768;2024-01-25T02:48:27;93339.19;;;6.36;82.98
64402;BME280;50724;42.376;23.768;2024-01-25T02:55:09;93355.75;;;6.35;82.75
64402;BME280;50724;42.376;23.768;2024-01-25T02:58:10;93361.31;;;6.40;82.18
64402;BME280;50724;42.376;23.768;2024-01-25T03:01:15;93365.81;;;6.29;82.90
64402;BME280;50724;42.376;23.768;2024-01-25T03:16:01;93357.84;;;6.01;86.91
64402;BME280;50724;42.376;23.768;2024-01-25T03:23:03;93352.94;;;6.08;87.24
64402;BME280;50724;42.376;23.768;2024-01-25T03:26:33;93339.09;;;5.98;88.20
64402;BME280;50724;42.376;23.768;2024-01-25T03:29:55;93323.53;;;5.98;88.62
64402;BME280;50724;42.376;23.768;2024-01-25T03:33:19;93344.88;;;6.01;88.88
64402;BME280;50724;42.376;23.768;2024-01-25T03:36:57;93348.81;;;5.96;88.80
64402;BME280;50724;42.376;23.768;2024-01-25T03:40:28;93338.00;;;5.91;89.31
64402;BME280;50724;42.376;23.768;2024-01-25T03:43:59;93351.72;;;6.02;89.51
64402;BME280;50724;42.376;23.768;2024-01-25T03:47:18;93359.22;;;6.05;89.74
64402;BME280;50724;42.376;23.768;2024-01-25T03:50:45;93359.63;;;6.10;89.68
64402;BME280;50724;42.376;23.768;2024-01-25T03:58:22;93370.88;;;6.20;89.92
64402;BME280;50724;42.376;23.768;2024-01-25T04:02:07;93369.25;;;6.29;90.33
64402;BME280;50724;42.376;23.768;2024-01-25T04:05:37;93355.03;;;6.23;90.58
64402;BME280;50724;42.376;23.768;2024-01-25T04:08:37;93350.38;;;6.27;90.92
64402;BME280;50724;42.376;23.768;2024-01-25T04:12:09;93340.81;;;6.28;91.17
64402;BME280;50724;42.376;23.768;2024-01-25T04:15:40;93340.81;;;6.18;92.25
64402;BME280;50724;42.376;23.768;2024-01-25T04:18:57;93335.19;;;6.13;92.46
64402;BME280;50724;42.376;23.768;2024-01-25T04:25:45;93343.25;;;6.19;92.98
64402;BME280;50724;42.376;23.768;2024-01-25T04:29:27;93327.13;;;6.06;94.17
64402;BME280;50724;42.376;23.768;2024-01-25T04:40:36;93330.81;;;6.13;95.63
64402;BME280;50724;42.376;23.768;2024-01-25T04:43:54;93336.00;;;6.04;96.38
64402;BME280;50724;42.376;23.768;2024-01-25T04:47:19;93350.88;;;6.02;96.95
64402;BME280;50724;42.376;23.768;2024-01-25T04:50:55;93338.03;;;6.00;97.26
64402;BME280;50724;42.376;23.768;2024-01-25T04:58:09;93325.59;;;5.94;97.29
64402;BME280;50724;42.376;23.768;2024-01-25T05:01:40;93324.50;;;5.97;96.76
64402;BME280;50724;42.376;23.768;2024-01-25T05:05:26;93337.22;;;6.00;96.21
64402;BME280;50724;42.376;23.768;2024-01-25T05:08:48;93334.88;;;5.97;96.53
64402;BME280;50724;42.376;23.768;2024-01-25T05:11:59;93351.69;;;5.93;97.13
64402;BME280;50724;42.376;23.768;2024-01-25T05:15:43;93351.94;;;5.90;96.41
64402;BME280;50724;42.376;23.768;2024-01-25T05:18:53;93350.72;;;5.94;94.90
64402;BME280;50724;42.376;23.768;2024-01-25T05:22:02;93357.56;;;5.95;93.65
64402;BME280;50724;42.376;23.768;2024-01-25T05:25:38;93367.28;;;6.02;91.94
64402;BME280;50724;42.376;23.768;2024-01-25T05:32:30;93379.56;;;6.00;91.04
64402;BME280;50724;42.376;23.768;2024-01-25T05:39:32;93402.38;;;5.97;90.14
64402;BME280;50724;42.376;23.768;2024-01-25T05:42:56;93408.81;;;6.02;88.79
64402;BME280;50724;42.376;23.768;2024-01-25T05:46:05;93412.53;;;6.09;88.73
64402;BME280;50724;42.376;23.768;2024-01-25T05:49:31;93407.47;;;6.08;88.42
64402;BME280;50724;42.376;23.768;2024-01-25T05:56:49;93419.97;;;5.93;87.44
64402;BME280;50724;42.376;23.768;2024-01-25T06:00:06;93429.41;;;5.94;86.04
64402;BME280;50724;42.376;23.768;2024-01-25T06:07:18;93422.22;;;6.07;80.26
64402;BME280;50724;42.376;23.768;2024-01-25T06:10:39;93422.22;;;6.07;79.09
64402;BME280;50724;42.376;23.768;2024-01-25T06:14:25;93433.00;;;6.03;78.30
64402;BME280;50724;42.376;23.768;2024-01-25T06:17:51;93438.91;;;6.14;77.40
64402;BME280;50724;42.376;23.768;2024-01-25T06:24:44;93432.34;;;6.10;76.61
64402;BME280;50724;42.376;23.768;2024-01-25T06:36:07;93436.72;;;6.10;76.43
64402;BME280;50724;42.376;23.768;2024-01-25T06:39:34;93439.16;;;6.02;77.60
64402;BME280;50724;42.376;23.768;2024-01-25T06:42:43;93443.38;;;6.03;77.56
64402;BME280;50724;42.376;23.768;2024-01-25T06:45:55;93449.94;;;5.97;78.09
64402;BME280;50724;42.376;23.768;2024-01-25T06:49:15;93456.25;;;6.04;77.13
64402;BME280;50724;42.376;23.768;2024-01-25T06:52:24;93462.09;;;5.97;77.84
64402;BME280;50724;42.376;23.768;2024-01-25T06:59:07;93479.03;;;6.01;77.05
64402;BME280;50724;42.376;23.768;2024-01-25T07:14:53;93466.97;;;5.90;77.02
64402;BME280;50724;42.376;23.768;2024-01-25T07:18:39;93473.16;;;5.99;76.10
64402;BME280;50724;42.376;23.768;2024-01-25T07:21:54;93482.59;;;6.00;74.39
64402;BME280;50724;42.376;23.768;2024-01-25T07:25:25;93463.88;;;6.06;74.71
64402;BME280;50724;42.376;23.768;2024-01-25T07:29:16;93476.47;;;6.10;73.65
64402;BME280;50724;42.376;23.768;2024-01-25T07:35:46;93479.38;;;6.17;73.20
64402;BME280;50724;42.376;23.768;2024-01-25T07:42:52;93482.28;;;6.23;73.57
64402;BME280;50724;42.376;23.768;2024-01-25T07:46:11;93485.13;;;6.20;73.78
64402;BME280;50724;42.376;23.768;2024-01-25T07:49:58;93494.16;;;6.16;74.99
64402;BME280;50724;42.376;23.768;2024-01-25T07:52:59;93483.03;;;6.14;75.03
64402;BME280;50724;42.376;23.768;2024-01-25T07:56:20;93481.66;;;6.10;74.67
64402;BME280;50724;42.376;23.768;2024-01-25T08:12:43;93495.63;;;6.19;73.17
64402;BME280;50724;42.376;23.768;2024-01-25T08:16:23;93482.28;;;6.23;72.79
64402;BME280;50724;42.376;23.768;2024-01-25T08:20:33;93484.34;;;6.30;72.23
64402;BME280;50724;42.376;23.768;2024-01-25T08:23:41;93485.22;;;6.40;71.87
64402;BME280;50724;42.376;23.768;2024-01-25T08:27:13;93482.88;;;6.37;71.48
64402;BME280;50724;42.376;23.768;2024-01-25T08:30:38;93484.53;;;6.38;70.85
64402;BME280;50724;42.376;23.768;2024-01-25T08:33:55;93490.91;;;6.34;70.82
64402;BME280;50724;42.376;23.768;2024-01-25T08:37:21;93479.38;;;6.17;69.31
64402;BME280;50724;42.376;23.768;2024-01-25T08:40:48;93472.41;;;6.17;69.33
64402;BME280;50724;42.376;23.768;2024-01-25T08:51:32;93467.06;;;6.09;68.35
64402;BME280;50724;42.376;23.768;2024-01-25T08:58:36;93446.63;;;6.26;67.25
64402;BME280;50724;42.376;23.768;2024-01-25T09:02:04;93453.19;;;6.30;67.49
64402;BME280;50724;42.376;23.768;2024-01-25T09:05:32;93460.19;;;6.39;67.68
64402;BME280;50724;42.376;23.768;2024-01-25T09:12:28;93453.75;;;6.43;66.39
64402;BME280;50724;42.376;23.768;2024-01-25T09:16:32;93440.50;;;6.46;65.45
64402;BME280;50724;42.376;23.768;2024-01-25T09:19:50;93443.78;;;6.48;64.13
64402;BME280;50724;42.376;23.768;2024-01-25T09:23:27;93473.22;;;6.58;63.77
64402;BME280;50724;42.376;23.768;2024-01-25T09:26:42;93461.16;;;6.57;64.07
64402;BME280;50724;42.376;23.768;2024-01-25T09:30:10;93458.56;;;6.57;63.13
64402;BME280;50724;42.376;23.768;2024-01-25T09:33:18;93456.59;;;6.79;63.43
64402;BME280;50724;42.376;23.768;2024-01-25T09:40:15;93470.56;;;7.07;63.46
64402;BME280;50724;42.376;23.768;2024-01-25T09:43:16;93461.81;;;6.99;63.29
64402;BME280;50724;42.376;23.768;2024-01-25T09:46:18;93437.84;;;6.85;62.82
64402;BME280;50724;42.376;23.768;2024-01-25T09:49:18;93450.97;;;6.74;63.21
64402;BME280;50724;42.376;23.768;2024-01-25T09:52:19;93453.16;;;6.79;62.95
64402;BME280;50724;42.376;23.768;2024-01-25T09:55:26;93448.38;;;6.93;63.06
64402;BME280;50724;42.376;23.768;2024-01-25T09:58:35;93440.72;;;7.02;63.19
64402;BME280;50724;42.376;23.768;2024-01-25T10:01:36;93430.72;;;7.07;63.01
64402;BME280;50724;42.376;23.768;2024-01-25T10:04:38;93427.03;;;7.19;63.13
64402;BME280;50724;42.376;23.768;2024-01-25T10:07:39;93421.81;;;7.28;62.95
64402;BME280;50724;42.376;23.768;2024-01-25T10:10:40;93404.00;;;7.43;62.51
64402;BME280;50724;42.376;23.768;2024-01-25T10:13:41;93401.81;;;7.38;62.04
64402;BME280;50724;42.376;23.768;2024-01-25T10:16:42;93387.59;;;7.14;63.00
64402;BME280;50724;42.376;23.768;2024-01-25T10:19:44;93394.31;;;6.97;63.87
64402;BME280;50724;42.376;23.768;2024-01-25T10:22:44;93368.88;;;7.01;64.19
64402;BME280;50724;42.376;23.768;2024-01-25T10:25:45;93389.13;;;7.07;64.56
64402;BME280;50724;42.376;23.768;2024-01-25T10:28:54;93395.28;;;6.96;64.43
64402;BME280;50724;42.376;23.768;2024-01-25T10:31:55;93384.75;;;6.98;64.85
64402;BME280;50724;42.376;23.768;2024-01-25T10:34:56;93377.34;;;7.03;64.10
64402;BME280;50724;42.376;23.768;2024-01-25T10:37:56;93366.94;;;7.03;63.92
64402;BME280;50724;42.376;23.768;2024-01-25T10:41:04;93367.06;;;7.01;65.18
64402;BME280;50724;42.376;23.768;2024-01-25T10:44:04;93376.13;;;7.07;64.87
64402;BME280;50724;42.376;23.768;2024-01-25T10:47:15;93363.00;;;6.99;64.82
64402;BME280;50724;42.376;23.768;2024-01-25T10:50:16;93338.44;;;7.20;64.10
64402;BME280;50724;42.376;23.768;2024-01-25T10:53:16;93345.31;;;7.02;64.03
64402;BME280;50724;42.376;23.768;2024-01-25T10:56:18;93349.44;;;6.85;64.65
64402;BME280;50724;42.376;23.768;2024-01-25T10:59:18;93350.38;;;6.94;65.17
64402;BME280;50724;42.376;23.768;2024-01-25T11:02:20;93340.56;;;6.88;65.21
64402;BME280;50724;42.376;23.768;2024-01-25T11:05:23;93350.78;;;7.09;65.67
64402;BME280;50724;42.376;23.768;2024-01-25T11:08:24;93341.88;;;7.21;65.46
64402;BME280;50724;42.376;23.768;2024-01-25T11:11:24;93339.31;;;7.02;64.67
64402;BME280;50724;42.376;23.768;2024-01-25T11:14:25;93334.53;;;6.87;65.13
64402;BME280;50724;42.376;23.768;2024-01-25T11:17:25;93343.84;;;6.80;65.06
64402;BME280;50724;42.376;23.768;2024-01-25T11:20:28;93350.81;;;6.80;65.11
64402;BME280;50724;42.376;23.768;2024-01-25T11:23:31;93355.31;;;6.78;65.19
64402;BME280;50724;42.376;23.768;2024-01-25T11:26:32;93327.16;;;6.83;62.73
64402;BME280;50724;42.376;23.768;2024-01-25T11:29:33;93334.41;;;6.99;62.79
64402;BME280;50724;42.376;23.768;2024-01-25T11:32:33;93331.63;;;7.10;63.19
64402;BME280;50724;42.376;23.768;2024-01-25T11:35:34;93318.06;;;7.06;64.51
64402;BME280;50724;42.376;23.768;2024-01-25T11:38:36;93340.44;;;6.70;64.24
64402;BME280;50724;42.376;23.768;2024-01-25T11:41:37;93320.59;;;6.69;64.57
64402;BME280;50724;42.376;23.768;2024-01-25T11:44:47;93327.28;;;6.72;63.98
64402;BME280;50724;42.376;23.768;2024-01-25T11:47:48;93336.59;;;6.74;64.13
64402;BME280;50724;42.376;23.768;2024-01-25T11:50:49;93341.78;;;6.74;64.15
64402;BME280;50724;42.376;23.768;2024-01-25T11:53:50;93321.94;;;6.73;62.58
64402;BME280;50724;42.376;23.768;2024-01-25T11:56:51;93345.91;;;6.58;63.24
64402;BME280;50724;42.376;23.768;2024-01-25T11:59:52;93342.75;;;6.54;64.37
64402;BME280;50724;42.376;23.768;2024-01-25T12:02:52;93343.84;;;6.42;64.77
64402;BME280;50724;42.376;23.768;2024-01-25T12:05:53;93340.00;;;6.37;65.00
64402;BME280;50724;42.376;23.768;2024-01-25T12:08:54;93339.06;;;6.28;64.82
64402;BME280;50724;42.376;23.768;2024-01-25T12:11:54;93346.00;;;6.28;65.33
64402;BME280;50724;42.376;23.768;2024-01-25T12:15:03;93346.13;;;6.26;65.29
64402;BME280;50724;42.376;23.768;2024-01-25T12:18:05;93352.69;;;6.20;65.53
64402;BME280;50724;42.376;23.768;2024-01-25T12:21:07;93346.25;;;6.15;65.72
64402;BME280;50724;42.376;23.768;2024-01-25T12:24:07;93358.41;;;6.14;66.09
64402;BME280;50724;42.376;23.768;2024-01-25T12:27:09;93349.91;;;6.03;66.83
64402;BME280;50724;42.376;23.768;2024-01-25T12:30:10;93326.00;;;5.99;66.18
64402;BME280;50724;42.376;23.768;2024-01-25T12:33:11;93361.53;;;5.99;66.90
64402;BME280;50724;42.376;23.768;2024-01-25T12:36:12;93367.53;;;5.99;67.31
64402;BME280;50724;42.376;23.768;2024-01-25T12:39:13;93355.78;;;5.95;67.62
64402;BME280;50724;42.376;23.768;2024-01-25T12:42:14;93342.28;;;6.01;67.40
64402;BME280;50724;42.376;23.768;2024-01-25T12:45:16;93333.66;;;6.01;68.13
64402;BME280;50724;42.376;23.768;2024-01-25T12:48:17;93331.22;;;6.09;67.62
64402;BME280;50724;42.376;23.768;2024-01-25T12:51:18;93322.88;;;6.15;67.57
64402;BME280;50724;42.376;23.768;2024-01-25T12:54:18;93320.56;;;6.21;66.56
64402;BME280;50724;42.376;23.768;2024-01-25T12:57:18;93310.47;;;6.18;66.05
64402;BME280;50724;42.376;23.768;2024-01-25T13:00:19;93307.16;;;6.26;65.72
64402;BME280;50724;42.376;23.768;2024-01-25T13:03:20;93306.38;;;6.26;65.90
64402;BME280;50724;42.376;23.768;2024-01-25T13:06:20;93295.16;;;6.25;66.37
64402;BME280;50724;42.376;23.768;2024-01-25T13:09:21;93280.13;;;6.29;66.37
64402;BME280;50724;42.376;23.768;2024-01-25T13:12:22;93254.13;;;6.38;65.47
64402;BME280;50724;42.376;23.768;2024-01-25T13:15:23;93250.88;;;6.46;65.19
64402;BME280;50724;42.376;23.768;2024-01-25T13:18:23;93256.31;;;6.43;65.55
64402;BME280;50724;42.376;23.768;2024-01-25T13:21:24;93254.28;;;6.46;65.06
64402;BME280;50724;42.376;23.768;2024-01-25T13:24:24;93251.94;;;6.53;65.29
64402;BME280;50724;42.376;23.768;2024-01-25T13:27:25;93258.50;;;6.57;63.73
64402;BME280;50724;42.376;23.768;2024-01-25T13:30:25;93249.09;;;6.56;65.24
64402;BME280;50724;42.376;23.768;2024-01-25T13:33:26;93258.09;;;6.52;65.50
64402;BME280;50724;42.376;23.768;2024-01-25T13:36:26;93246.50;;;6.37;64.92
64402;BME280;50724;42.376;23.768;2024-01-25T13:39:27;93253.63;;;6.35;65.36
64402;BME280;50724;42.376;23.768;2024-01-25T13:42:28;93251.44;;;6.30;65.35
64402;BME280;50724;42.376;23.768;2024-01-25T13:45:28;93249.78;;;6.19;66.02
64402;BME280;50724;42.376;23.768;2024-01-25T13:48:29;93242.66;;;6.21;65.91
64402;BME280;50724;42.376;23.768;2024-01-25T13:51:29;93251.53;;;6.29;65.29
64402;BME280;50724;42.376;23.768;2024-01-25T13:54:30;93237.88;;;6.36;65.30
64402;BME280;50724;42.376;23.768;2024-01-25T13:57:30;93225.97;;;6.43;64.97
64402;BME280;50724;42.376;23.768;2024-01-25T14:00:31;93213.66;;;6.45;64.15
64402;BME280;50724;42.376;23.768;2024-01-25T14:03:31;93225.44;;;6.49;63.84
64402;BME280;50724;42.376;23.768;2024-01-25T14:06:32;93206.28;;;6.50;63.39
64402;BME280;50724;42.376;23.768;2024-01-25T14:09:32;93216.66;;;6.50;63.97
64402;BME280;50724;42.376;23.768;2024-01-25T14:12:33;93216.00;;;6.48;63.96
64402;BME280;50724;42.376;23.768;2024-01-25T14:15:34;93213.56;;;6.37;63.63
64402;BME280;50724;42.376;23.768;2024-01-25T14:18:39;93207.69;;;6.35;63.89
64402;BME280;50724;42.376;23.768;2024-01-25T14:21:40;93219.16;;;6.33;62.79
64402;BME280;50724;42.376;23.768;2024-01-25T14:24:40;93215.75;;;6.32;62.74
64402;BME280;50724;42.376;23.768;2024-01-25T14:27:41;93223.38;;;6.14;62.61
64402;BME280;50724;42.376;23.768;2024-01-25T14:30:42;93221.75;;;6.04;62.76
64402;BME280;50724;42.376;23.768;2024-01-25T14:33:45;93229.81;;;6.01;62.71
64402;BME280;50724;42.376;23.768;2024-01-25T14:36:45;93231.88;;;5.97;62.49
64402;BME280;50724;42.376;23.768;2024-01-25T14:39:46;93240.47;;;5.98;62.75
64402;BME280;50724;42.376;23.768;2024-01-25T14:42:46;93232.69;;;5.98;62.62
64402;BME280;50724;42.376;23.768;2024-01-25T14:45:47;93246.78;;;5.95;62.90
64402;BME280;50724;42.376;23.768;2024-01-25T14:48:47;93245.09;;;5.85;63.96
64402;BME280;50724;42.376;23.768;2024-01-25T14:51:48;93234.13;;;5.72;65.25
64402;BME280;50724;42.376;23.768;2024-01-25T14:54:49;93232.63;;;5.69;64.39
64402;BME280;50724;42.376;23.768;2024-01-25T14:57:49;93231.31;;;5.84;63.74
64402;BME280;50724;42.376;23.768;2024-01-25T15:00:51;93234.00;;;5.83;63.53
64402;BME280;50724;42.376;23.768;2024-01-25T15:03:52;93254.94;;;5.91;63.20
64402;BME280;50724;42.376;23.768;2024-01-25T15:06:52;93251.94;;;5.86;63.26
64402;BME280;50724;42.376;23.768;2024-01-25T15:09:53;93252.06;;;5.84;63.12
64402;BME280;50724;42.376;23.768;2024-01-25T15:12:53;93256.00;;;5.79;62.92
64402;BME280;50724;42.376;23.768;2024-01-25T15:15:54;93258.59;;;5.79;62.69
64402;BME280;50724;42.376;23.768;2024-01-25T15:18:54;93260.34;;;5.69;63.01
64402;BME280;50724;42.376;23.768;2024-01-25T15:21:55;93263.13;;;5.46;63.86
64402;BME280;50724;42.376;23.768;2024-01-25T15:24:55;93251.69;;;5.49;63.36
64402;BME280;50724;42.376;23.768;2024-01-25T15:27:56;93263.44;;;5.43;63.46
64402;BME280;50724;42.376;23.768;2024-01-25T15:30:56;93260.75;;;5.24;64.94
64402;BME280;50724;42.376;23.768;2024-01-25T15:33:57;93259.09;;;5.23;65.44
64402;BME280;50724;42.376;23.768;2024-01-25T15:36:58;93268.25;;;5.18;65.44
64402;BME280;50724;42.376;23.768;2024-01-25T15:39:58;93268.63;;;5.13;65.93
64402;BME280;50724;42.376;23.768;2024-01-25T15:42:59;93274.16;;;4.99;66.70
64402;BME280;50724;42.376;23.768;2024-01-25T15:46:00;93264.59;;;5.00;66.81
64402;BME280;50724;42.376;23.768;2024-01-25T15:49:00;93274.09;;;4.90;67.01
64402;BME280;50724;42.376;23.768;2024-01-25T15:52:01;93256.72;;;5.01;66.19
64402;BME280;50724;42.376;23.768;2024-01-25T15:55:03;93274.56;;;5.04;66.02
64402;BME280;50724;42.376;23.768;2024-01-25T15:58:04;93260.75;;;4.94;66.38
64402;BME280;50724;42.376;23.768;2024-01-25T16:01:04;93283.56;;;5.00;66.27
64402;BME280;50724;42.376;23.768;2024-01-25T16:04:05;93289.63;;;5.10;66.19
64402;BME280;50724;42.376;23.768;2024-01-25T16:07:05;93292.94;;;5.22;66.37
64402;BME280;50724;42.376;23.768;2024-01-25T16:10:06;93296.91;;;5.26;66.62
64402;BME280;50724;42.376;23.768;2024-01-25T16:13:06;93306.59;;;5.24;67.16
64402;BME280;50724;42.376;23.768;2024-01-25T16:16:07;93296.81;;;5.27;67.68
64402;BME280;50724;42.376;23.768;2024-01-25T16:19:07;93282.47;;;5.33;68.08
64402;BME280;50724;42.376;23.768;2024-01-25T16:22:08;93267.81;;;5.13;68.88
64402;BME280;50724;42.376;23.768;2024-01-25T16:25:09;93287.22;;;4.98;70.55
64402;BME280;50724;42.376;23.768;2024-01-25T16:28:09;93288.63;;;5.02;70.84
64402;BME280;50724;42.376;23.768;2024-01-25T16:31:10;93289.00;;;4.97;71.62
64402;BME280;50724;42.376;23.768;2024-01-25T16:34:11;93286.28;;;4.99;71.97
64402;BME280;50724;42.376;23.768;2024-01-25T16:37:12;93300.75;;;5.01;72.90
64402;BME280;50724;42.376;23.768;2024-01-25T16:40:12;93304.19;;;5.02;73.26
64402;BME280;50724;42.376;23.768;2024-01-25T16:43:13;93310.94;;;4.93;74.28
64402;BME280;50724;42.376;23.768;2024-01-25T16:46:15;93324.72;;;4.94;75.05
64402;BME280;50724;42.376;23.768;2024-01-25T16:49:24;93327.31;;;4.94;75.34
64402;BME280;50724;42.376;23.768;2024-01-25T16:52:24;93328.53;;;4.90;76.05
64402;BME280;50724;42.376;23.768;2024-01-25T16:55:25;93338.69;;;4.81;76.45
64402;BME280;50724;42.376;23.768;2024-01-25T16:58:34;93334.34;;;4.82;75.89
64402;BME280;50724;42.376;23.768;2024-01-25T17:01:34;93340.97;;;4.75;76.67
64402;BME280;50724;42.376;23.768;2024-01-25T17:04:35;93349.34;;;4.67;76.46
64402;BME280;50724;42.376;23.768;2024-01-25T17:07:35;93340.91;;;4.65;76.33
64402;BME280;50724;42.376;23.768;2024-01-25T17:10:36;93357.66;;;4.61;76.38
64402;BME280;50724;42.376;23.768;2024-01-25T17:13:36;93353.25;;;4.62;76.19
64402;BME280;50724;42.376;23.768;2024-01-25T17:16:46;93353.47;;;4.70;75.68
64402;BME280;50724;42.376;23.768;2024-01-25T17:19:46;93360.31;;;4.71;75.88
64402;BME280;50724;42.376;23.768;2024-01-25T17:22:47;93363.91;;;4.79;75.65
64402;BME280;50724;42.376;23.768;2024-01-25T17:25:47;93362.31;;;4.88;75.86
64402;BME280;50724;42.376;23.768;2024-01-25T17:28:48;93365.56;;;5.01;75.45
64402;BME280;50724;42.376;23.768;2024-01-25T17:31:49;93352.47;;;5.03;76.21
64402;BME280;50724;42.376;23.768;2024-01-25T17:34:49;93359.16;;;5.05;76.48
64402;BME280;50724;42.376;23.768;2024-01-25T17:37:50;93354.22;;;5.02;76.54
64402;BME280;50724;42.376;23.768;2024-01-25T17:40:50;93363.66;;;5.03;76.74
64402;BME280;50724;42.376;23.768;2024-01-25T17:43:50;93358.84;;;4.99;76.89
64402;BME280;50724;42.376;23.768;2024-01-25T17:46:51;93358.66;;;4.91;77.23
64402;BME280;50724;42.376;23.768;2024-01-25T17:49:51;93367.06;;;4.83;77.64
64402;BME280;50724;42.376;23.768;2024-01-25T17:52:52;93359.34;;;4.72;78.42
64402;BME280;50724;42.376;23.768;2024-01-25T17:55:52;93363.28;;;4.66;78.96
64402;BME280;50724;42.376;23.768;2024-01-25T17:58:53;93363.38;;;4.65;79.18
64402;BME280;50724;42.376;23.768;2024-01-25T18:01:55;93367.41;;;4.58;79.36
64402;BME280;50724;42.376;23.768;2024-01-25T18:04:56;93371.75;;;4.57;79.45
64402;BME280;50724;42.376;23.768;2024-01-25T18:07:56;93374.34;;;4.57;79.31
64402;BME280;50724;42.376;23.768;2024-01-25T18:10:56;93355.06;;;4.50;79.21
64402;BME280;50724;42.376;23.768;2024-01-25T18:13:58;93351.09;;;4.46;79.45
64402;BME280;50724;42.376;23.768;2024-01-25T18:16:59;93369.00;;;4.49;78.79
64402;BME280;50724;42.376;23.768;2024-01-25T18:19:59;93345.63;;;4.60;77.76
64402;BME280;50724;42.376;23.768;2024-01-25T18:23:00;93369.38;;;4.45;78.58
64402;BME280;50724;42.376;23.768;2024-01-25T18:26:00;93355.91;;;4.51;77.37
64402;BME280;50724;42.376;23.768;2024-01-25T18:29:01;93367.66;;;4.55;76.61
64402;BME280;50724;42.376;23.768;2024-01-25T18:32:01;93375.78;;;4.50;76.77
64402;BME280;50724;42.376;23.768;2024-01-25T18:35:03;93382.88;;;4.48;76.28
64402;BME280;50724;42.376;23.768;2024-01-25T18:38:04;93382.50;;;4.53;75.73
64402;BME280;50724;42.376;23.768;2024-01-25T18:41:04;93391.63;;;4.68;74.20
64402;BME280;50724;42.376;23.768;2024-01-25T18:44:09;93391.50;;;4.69;73.84
64402;BME280;50724;42.376;23.768;2024-01-25T18:47:10;93396.31;;;4.74;73.15
64402;BME280;50724;42.376;23.768;2024-01-25T18:50:10;93397.13;;;4.74;72.95
64402;BME280;50724;42.376;23.768;2024-01-25T18:53:11;93390.50;;;4.81;71.12
64402;BME280;50724;42.376;23.768;2024-01-25T18:56:11;93392.84;;;4.84;70.51
64402;BME280;50724;42.376;23.768;2024-01-25T18:59:12;93403.78;;;4.88;70.04
64402;BME280;50724;42.376;23.768;2024-01-25T19:02:13;93404.97;;;4.84;70.26
64402;BME280;50724;42.376;23.768;2024-01-25T19:05:14;93400.94;;;4.91;69.24
64402;BME280;50724;42.376;23.768;2024-01-25T19:08:15;93392.94;;;4.94;68.33
64402;BME280;50724;42.376;23.768;2024-01-25T19:11:15;93398.28;;;5.02;68.77